Time;durP1;ratioP1;P1;durP2;ratioP2;P2;SDS_P1;SDS_P2;PMS_P1;PMS_P2;Temp;Humidity;BMP_temperature;BMP_pressure;BME280_temperature;BME280_humidity;BME280_pressure;Samples;Min_cycle;Max_cycle;Signal;HPM_P1;HPM_P2
2023/08/27 00:04:56;;;;;;;13.95;9.20;;;;;;;;;;5004275;28;20422;-58
2023/08/27 00:07:23;;;;;;;13.93;10.05;;;;;;;;;;5018791;23;20070;-57
2023/08/27 00:09:48;;;;;;;14.13;10.73;;;;;;;;;;5031617;23;20045;-58
2023/08/27 00:12:13;;;;;;;13.40;10.48;;;;;;;;;;4995382;28;20545;-58
2023/08/27 00:14:38;;;;;;;12.60;9.90;;;;;;;;;;5010177;28;20038;-58
2023/08/27 00:17:04;;;;;;;17.97;10.73;;;;;;;;;;5036005;28;20056;-56
2023/08/27 00:19:29;;;;;;;12.40;9.32;;;;;;;;;;5044957;28;20030;-58
2023/08/27 00:21:57;;;;;;;15.45;12.98;;;;;;;;;;5044770;28;20033;-58
2023/08/27 00:24:23;;;;;;;16.60;13.80;;;;;;;;;;5022406;28;20566;-56
2023/08/27 00:26:48;;;;;;;16.03;12.40;;;;;;;;;;5021693;28;20171;-57
2023/08/27 00:29:14;;;;;;;15.27;12.20;;;;;;;;;;5024176;28;20342;-56
2023/08/27 00:31:39;;;;;;;13.80;11.32;;;;;;;;;;5024132;28;20502;-57
2023/08/27 00:34:05;;;;;;;16.37;12.13;;;;;;;;;;5017608;28;20037;-57
2023/08/27 00:36:30;;;;;;;16.00;11.27;;;;;;;;;;5023916;28;20037;-58
2023/08/27 00:38:55;;;;;;;15.93;11.03;;;;;;;;;;5006542;23;20754;-55
2023/08/27 00:41:20;;;;;;;14.25;10.35;;;;;;;;;;4999822;28;20277;-56
2023/08/27 00:43:46;;;;;;;16.00;10.73;;;;;;;;;;4977702;28;20406;-56
2023/08/27 00:46:11;;;;;;;15.20;10.82;;;;;;;;;;5015032;28;20296;-56
2023/08/27 00:48:36;;;;;;;15.20;10.48;;;;;;;;;;4997962;28;20042;-55
2023/08/27 00:51:02;;;;;;;13.98;10.88;;;;;;;;;;5005751;28;20045;-56
2023/08/27 00:53:28;;;;;;;14.80;10.60;;;;;;;;;;4991034;28;20424;-56
2023/08/27 00:55:53;;;;;;;14.05;10.63;;;;;;;;;;5019725;28;20160;-56
2023/08/27 00:58:18;;;;;;;15.33;10.80;;;;;;;;;;5023471;28;20038;-56
2023/08/27 01:00:43;;;;;;;13.37;10.77;;;;;;;;;;5006451;28;20288;-56
2023/08/27 01:03:09;;;;;;;13.37;11.40;;;;;;;;;;5006923;28;21242;-55
2023/08/27 01:05:35;;;;;;;13.90;11.05;;;;;;;;;;4990586;28;20281;-57
2023/08/27 01:08:16;;;;;;;15.05;10.85;;;;;;;;;;5023883;28;20044;-56
2023/08/27 01:10:57;;;;;;;14.63;10.85;;;;;;;;;;5006879;28;20108;-56
2023/08/27 01:13:31;;;;;;;15.02;11.77;;;;;;;;;;4989692;28;20062;-56
2023/08/27 01:15:58;;;;;;;18.17;11.43;;;;;;;;;;4995850;28;20050;-57
2023/08/27 01:18:23;;;;;;;16.45;11.55;;;;;;;;;;4991820;28;20037;-56
2023/08/27 01:20:48;;;;;;;19.60;11.10;;;;;;;;;;4988277;28;20114;-56
2023/08/27 01:23:13;;;;;;;12.03;9.87;;;;;;;;;;5003490;28;20305;-56
2023/08/27 01:25:43;;;;;;;12.95;10.27;;;;;;;;;;4995022;28;20616;-56
2023/08/27 01:28:13;;;;;;;14.65;10.15;;;;;;;;;;4989999;28;20103;-55
2023/08/27 01:30:41;;;;;;;16.00;10.88;;;;;;;;;;5020877;28;20496;-55
2023/08/27 01:33:08;;;;;;;12.75;10.00;;;;;;;;;;5025785;28;20052;-55
2023/08/27 01:35:33;;;;;;;13.02;10.35;;;;;;;;;;5023166;28;20029;-56
2023/08/27 01:37:59;;;;;;;13.18;10.40;;;;;;;;;;5006747;28;20050;-56
2023/08/27 01:40:25;;;;;;;13.38;10.50;;;;;;;;;;4999462;28;20021;-56
2023/08/27 01:42:50;;;;;;;13.07;10.27;;;;;;;;;;5006775;28;20049;-57
2023/08/27 01:45:17;;;;;;;14.00;11.00;;;;;;;;;;5007838;28;20395;-57
2023/08/27 01:47:42;;;;;;;15.63;10.50;;;;;;;;;;5005627;28;20260;-56
2023/08/27 01:50:08;;;;;;;13.43;9.37;;;;;;;;;;4970808;28;20014;-57
2023/08/27 01:52:35;;;;;;;11.68;9.82;;;;;;;;;;5024911;28;20845;-56
2023/08/27 01:55:01;;;;;;;13.30;9.70;;;;;;;;;;4996292;28;20022;-57
2023/08/27 01:57:26;;;;;;;10.40;9.30;;;;;;;;;;5004573;28;20040;-56
2023/08/27 01:59:51;;;;;;;11.93;10.00;;;;;;;;;;5007513;28;20776;-55
2023/08/27 02:02:16;;;;;;;12.57;9.85;;;;;;;;;;4998085;28;20129;-56
2023/08/27 02:04:42;;;;;;;11.52;9.68;;;;;;;;;;4986384;28;20032;-56
2023/08/27 02:07:08;;;;;;;12.33;9.90;;;;;;;;;;5004797;28;20027;-57
2023/08/27 02:09:33;;;;;;;13.55;10.68;;;;;;;;;;4988299;28;20034;-56
2023/08/27 02:11:58;;;;;;;12.70;9.77;;;;;;;;;;5019259;28;20088;-56
2023/08/27 02:14:23;;;;;;;12.67;9.93;;;;;;;;;;5000166;28;20050;-56
2023/08/27 02:16:49;;;;;;;12.43;9.80;;;;;;;;;;4993415;28;20367;-56
2023/08/27 02:19:15;;;;;;;13.70;9.82;;;;;;;;;;4989585;28;20277;-56
2023/08/27 02:21:40;;;;;;;11.13;9.38;;;;;;;;;;4989863;28;20037;-56
2023/08/27 02:24:05;;;;;;;15.17;9.70;;;;;;;;;;5011921;28;20140;-56
2023/08/27 02:26:30;;;;;;;11.43;9.57;;;;;;;;;;4991211;28;20278;-56
2023/08/27 02:28:56;;;;;;;12.63;9.07;;;;;;;;;;5009348;28;20027;-57
2023/08/27 02:31:21;;;;;;;13.23;10.53;;;;;;;;;;4987486;28;20269;-57
2023/08/27 02:33:46;;;;;;;13.57;10.17;;;;;;;;;;4969610;28;20274;-56
2023/08/27 02:36:12;;;;;;;13.32;10.00;;;;;;;;;;4967054;28;20319;-56
2023/08/27 02:38:37;;;;;;;12.67;9.73;;;;;;;;;;5005039;28;20076;-57
2023/08/27 02:41:02;;;;;;;12.80;9.55;;;;;;;;;;4989723;28;20283;-56
2023/08/27 02:43:28;;;;;;;12.50;9.53;;;;;;;;;;5016927;28;20405;-56
2023/08/27 02:45:53;;;;;;;13.90;9.98;;;;;;;;;;4980699;28;20280;-56
2023/08/27 02:48:18;;;;;;;13.13;10.03;;;;;;;;;;4985520;28;20472;-57
2023/08/27 02:50:43;;;;;;;14.27;9.93;;;;;;;;;;4988842;28;20303;-56
2023/08/27 02:53:09;;;;;;;12.35;9.57;;;;;;;;;;5011904;28;20554;-56
2023/08/27 02:55:34;;;;;;;14.00;10.30;;;;;;;;;;4991271;28;20041;-55
2023/08/27 02:57:59;;;;;;;13.73;9.77;;;;;;;;;;5000936;28;20034;-56
2023/08/27 03:00:25;;;;;;;12.93;10.02;;;;;;;;;;5019008;28;20276;-57
2023/08/27 03:02:50;;;;;;;12.70;10.38;;;;;;;;;;4991071;28;20771;-56
2023/08/27 03:05:15;;;;;;;11.90;10.23;;;;;;;;;;4991451;28;20154;-56
2023/08/27 03:07:40;;;;;;;13.50;10.00;;;;;;;;;;4987730;28;20277;-56
2023/08/27 03:10:06;;;;;;;14.13;10.53;;;;;;;;;;4969123;28;20762;-57
2023/08/27 03:12:31;;;;;;;13.85;10.20;;;;;;;;;;4972377;28;20288;-57
2023/08/27 03:14:56;;;;;;;13.77;9.93;;;;;;;;;;4998195;28;20066;-56
2023/08/27 03:17:22;;;;;;;15.00;10.17;;;;;;;;;;4993483;28;20329;-56
2023/08/27 03:19:47;;;;;;;13.07;9.65;;;;;;;;;;4990084;28;20030;-56
2023/08/27 03:22:12;;;;;;;13.13;9.77;;;;;;;;;;5020874;28;20058;-55
2023/08/27 03:24:38;;;;;;;14.30;10.17;;;;;;;;;;5009976;28;20348;-56
2023/08/27 03:27:03;;;;;;;14.07;10.00;;;;;;;;;;4986559;28;20293;-56
2023/08/27 03:29:29;;;;;;;15.33;10.07;;;;;;;;;;5004746;28;20034;-55
2023/08/27 03:31:54;;;;;;;15.75;10.15;;;;;;;;;;5002812;28;20281;-57
2023/08/27 03:34:20;;;;;;;12.27;9.93;;;;;;;;;;5004491;28;20519;-57
2023/08/27 03:36:45;;;;;;;12.40;9.73;;;;;;;;;;5008064;28;20720;-57
2023/08/27 03:39:10;;;;;;;12.57;9.60;;;;;;;;;;5025338;28;20308;-55
2023/08/27 03:41:35;;;;;;;16.20;11.10;;;;;;;;;;5025540;28;20367;-56
2023/08/27 03:44:01;;;;;;;13.43;10.10;;;;;;;;;;5005311;28;20296;-56
2023/08/27 03:46:26;;;;;;;13.15;10.40;;;;;;;;;;5004207;28;20375;-57
2023/08/27 03:48:51;;;;;;;14.38;10.60;;;;;;;;;;5003224;28;20092;-56
2023/08/27 03:51:17;;;;;;;11.87;9.37;;;;;;;;;;4996190;28;20061;-55
2023/08/27 03:53:42;;;;;;;12.23;9.98;;;;;;;;;;5020807;28;20265;-56
2023/08/27 03:56:07;;;;;;;12.93;10.07;;;;;;;;;;5005622;28;20499;-55
2023/08/27 03:58:32;;;;;;;14.50;9.87;;;;;;;;;;5003936;28;20340;-55
2023/08/27 04:00:57;;;;;;;13.35;10.57;;;;;;;;;;4971522;28;20293;-55
2023/08/27 04:03:23;;;;;;;16.47;10.63;;;;;;;;;;4968059;28;20496;-55
2023/08/27 04:05:49;;;;;;;19.23;11.77;;;;;;;;;;4986538;28;20269;-55
2023/08/27 04:08:15;;;;;;;14.23;10.05;;;;;;;;;;4983478;28;20290;-56
2023/08/27 04:10:46;;;;;;;14.45;10.25;;;;;;;;;;4986170;28;20037;-56
2023/08/27 04:13:11;;;;;;;13.43;9.90;;;;;;;;;;4982867;28;20069;-56
2023/08/27 04:15:37;;;;;;;13.87;10.03;;;;;;;;;;4989334;28;20121;-56
2023/08/27 04:18:02;;;;;;;13.60;10.57;;;;;;;;;;5004540;28;20276;-56
2023/08/27 04:20:29;;;;;;;13.05;10.40;;;;;;;;;;4996410;28;20053;-56
2023/08/27 04:22:55;;;;;;;14.95;10.77;;;;;;;;;;4993470;28;20060;-57
2023/08/27 04:25:20;;;;;;;14.37;10.20;;;;;;;;;;4998950;28;20139;-56
2023/08/27 04:27:45;;;;;;;14.00;10.33;;;;;;;;;;4997252;28;20311;-55
2023/08/27 04:30:11;;;;;;;11.97;9.77;;;;;;;;;;4986855;28;20297;-56
2023/08/27 04:32:36;;;;;;;14.52;11.00;;;;;;;;;;5000440;28;20281;-55
2023/08/27 04:35:02;;;;;;;17.23;10.67;;;;;;;;;;5000744;28;20405;-55
2023/08/27 04:37:28;;;;;;;11.90;9.77;;;;;;;;;;5020997;28;20530;-55
2023/08/27 04:39:54;;;;;;;13.20;9.55;;;;;;;;;;5004200;28;20034;-56
2023/08/27 04:42:19;;;;;;;12.23;9.60;;;;;;;;;;4998041;28;20034;-56
2023/08/27 04:44:44;;;;;;;12.20;9.80;;;;;;;;;;5014301;28;20284;-56
2023/08/27 04:47:09;;;;;;;16.23;10.23;;;;;;;;;;5024599;28;20285;-56
2023/08/27 04:49:36;;;;;;;13.53;10.30;;;;;;;;;;5003015;28;20774;-55
2023/08/27 04:52:03;;;;;;;15.10;10.20;;;;;;;;;;5005181;28;20352;-56
2023/08/27 04:54:29;;;;;;;12.98;9.40;;;;;;;;;;5003484;28;20053;-56
2023/08/27 04:56:54;;;;;;;13.63;10.20;;;;;;;;;;5013802;28;20042;-55
2023/08/27 04:59:19;;;;;;;13.85;10.07;;;;;;;;;;4986729;28;20038;-55
2023/08/27 05:01:44;;;;;;;13.90;10.10;;;;;;;;;;4970630;28;20431;-56
2023/08/27 05:04:10;;;;;;;11.87;9.37;;;;;;;;;;5011905;28;20080;-56
2023/08/27 05:06:35;;;;;;;15.23;9.20;;;;;;;;;;5001382;28;20701;-56
2023/08/27 05:09:00;;;;;;;13.57;10.13;;;;;;;;;;5003153;28;20276;-56
2023/08/27 05:11:25;;;;;;;12.27;9.50;;;;;;;;;;5002662;28;20391;-56
2023/08/27 05:13:51;;;;;;;13.23;9.60;;;;;;;;;;5001532;28;20049;-57
2023/08/27 05:16:16;;;;;;;14.00;9.53;;;;;;;;;;5002817;28;20304;-56
2023/08/27 05:18:41;;;;;;;14.33;9.40;;;;;;;;;;5019408;28;20727;-55
2023/08/27 05:21:06;;;;;;;12.63;10.00;;;;;;;;;;5003301;28;20337;-55
2023/08/27 05:23:31;;;;;;;11.20;9.43;;;;;;;;;;5003538;28;20305;-57
2023/08/27 05:25:57;;;;;;;14.77;9.73;;;;;;;;;;5011427;28;20288;-58
2023/08/27 05:28:22;;;;;;;12.43;9.07;;;;;;;;;;4984485;28;20042;-55
2023/08/27 05:30:47;;;;;;;13.17;8.97;;;;;;;;;;4976038;28;20281;-55
2023/08/27 05:33:13;;;;;;;16.92;9.63;;;;;;;;;;4982679;28;20806;-55
2023/08/27 05:35:38;;;;;;;11.47;8.93;;;;;;;;;;4988508;28;20034;-55
2023/08/27 05:38:03;;;;;;;12.80;8.93;;;;;;;;;;4996031;28;20071;-55
2023/08/27 05:40:28;;;;;;;12.00;8.87;;;;;;;;;;5008490;28;20125;-56
2023/08/27 05:42:55;;;;;;;11.25;7.00;;;;;;;;;;4990072;28;20327;-56
2023/08/27 05:45:20;;;;;;;9.67;6.47;;;;;;;;;;4984278;28;20455;-56
2023/08/27 05:47:45;;;;;;;10.37;6.97;;;;;;;;;;5006828;28;20376;-56
2023/08/27 05:50:10;;;;;;;8.73;6.60;;;;;;;;;;4989853;28;20269;-56
2023/08/27 05:52:36;;;;;;;11.37;6.50;;;;;;;;;;5006064;28;20814;-56
2023/08/27 05:55:02;;;;;;;9.20;6.95;;;;;;;;;;4994271;28;20339;-56
2023/08/27 05:57:27;;;;;;;11.18;7.05;;;;;;;;;;5000907;28;20411;-56
2023/08/27 05:59:52;;;;;;;11.60;6.63;;;;;;;;;;4989830;28;20440;-56
2023/08/27 06:02:17;;;;;;;8.93;6.80;;;;;;;;;;4972214;28;20367;-55
2023/08/27 06:04:43;;;;;;;9.10;7.03;;;;;;;;;;4970777;28;20380;-56
2023/08/27 06:07:09;;;;;;;10.03;6.83;;;;;;;;;;4993798;28;20297;-59
2023/08/27 06:09:35;;;;;;;8.88;6.63;;;;;;;;;;4994003;28;20372;-60
2023/08/27 06:12:00;;;;;;;11.65;7.03;;;;;;;;;;4991882;28;20646;-59
2023/08/27 06:14:25;;;;;;;12.98;6.95;;;;;;;;;;4993025;28;20038;-60
2023/08/27 06:16:50;;;;;;;11.67;7.10;;;;;;;;;;4989398;28;20135;-59
2023/08/27 06:19:16;;;;;;;9.77;7.10;;;;;;;;;;4994540;28;20376;-59
2023/08/27 06:21:42;;;;;;;9.93;7.20;;;;;;;;;;4995233;28;20727;-57
2023/08/27 06:24:07;;;;;;;9.18;6.78;;;;;;;;;;4993871;28;20156;-59
2023/08/27 06:26:32;;;;;;;7.80;6.07;;;;;;;;;;4990620;28;20038;-58
2023/08/27 06:28:58;;;;;;;10.03;6.53;;;;;;;;;;4992340;28;20146;-60
2023/08/27 06:31:24;;;;;;;8.95;6.13;;;;;;;;;;4995209;28;20293;-58
2023/08/27 06:33:49;;;;;;;11.82;6.85;;;;;;;;;;4995051;28;20042;-60
2023/08/27 06:36:14;;;;;;;10.23;6.50;;;;;;;;;;4993461;28;20108;-60
2023/08/27 06:38:39;;;;;;;9.07;5.80;;;;;;;;;;4990859;28;20043;-59
2023/08/27 06:41:04;;;;;;;8.98;6.07;;;;;;;;;;4991992;28;20038;-60
2023/08/27 06:43:30;;;;;;;10.45;6.05;;;;;;;;;;4997178;28;20104;-60
2023/08/27 06:45:55;;;;;;;7.10;5.70;;;;;;;;;;4994850;28;20117;-61
2023/08/27 06:48:20;;;;;;;8.40;6.60;;;;;;;;;;4979185;28;20458;-60
2023/08/27 06:50:45;;;;;;;10.57;6.50;;;;;;;;;;4980777;28;20479;-59
2023/08/27 06:53:11;;;;;;;10.77;7.03;;;;;;;;;;4997983;28;20065;-59
2023/08/27 06:55:36;;;;;;;10.37;6.40;;;;;;;;;;4995322;28;20133;-61
2023/08/27 06:58:01;;;;;;;7.43;5.95;;;;;;;;;;4976689;28;20293;-61
2023/08/27 07:00:27;;;;;;;10.90;6.65;;;;;;;;;;4980028;28;20450;-61
2023/08/27 07:02:52;;;;;;;8.05;5.90;;;;;;;;;;4990721;28;20065;-61
2023/08/27 07:05:18;;;;;;;7.82;6.20;;;;;;;;;;4974769;28;20042;-60
2023/08/27 07:07:44;;;;;;;8.35;6.07;;;;;;;;;;4988883;28;20042;-59
2023/08/27 07:10:10;;;;;;;8.23;6.00;;;;;;;;;;4970194;28;20042;-60
2023/08/27 07:12:35;;;;;;;9.02;5.68;;;;;;;;;;4978052;28;20640;-62
2023/08/27 07:15:01;;;;;;;10.53;6.03;;;;;;;;;;4993634;28;20038;-60
2023/08/27 07:17:26;;;;;;;8.48;6.30;;;;;;;;;;4976845;28;20331;-60
2023/08/27 07:19:52;;;;;;;6.77;5.93;;;;;;;;;;4978505;28;20034;-58
2023/08/27 07:22:17;;;;;;;8.27;6.25;;;;;;;;;;4987597;28;20289;-60
2023/08/27 07:24:43;;;;;;;9.90;5.73;;;;;;;;;;4994599;28;20125;-60
2023/08/27 07:27:09;;;;;;;8.50;5.78;;;;;;;;;;4988459;28;20082;-60
2023/08/27 07:29:34;;;;;;;11.57;5.90;;;;;;;;;;4993145;28;20040;-59
2023/08/27 07:31:59;;;;;;;7.68;5.50;;;;;;;;;;4978568;28;20054;-60
2023/08/27 07:34:25;;;;;;;7.77;5.67;;;;;;;;;;4987863;28;20492;-60
2023/08/27 07:36:50;;;;;;;7.63;5.83;;;;;;;;;;4982894;28;20593;-61
2023/08/27 07:39:15;;;;;;;7.82;5.60;;;;;;;;;;4992921;28;20300;-59
2023/08/27 07:41:40;;;;;;;8.87;5.90;;;;;;;;;;4976575;28;20038;-60
2023/08/27 07:44:06;;;;;;;8.47;5.50;;;;;;;;;;4978402;28;20079;-59
2023/08/27 07:46:32;;;;;;;7.10;5.27;;;;;;;;;;4987853;28;20168;-60
2023/08/27 07:48:57;;;;;;;10.10;6.35;;;;;;;;;;4992621;28;20292;-59
2023/08/27 07:51:22;;;;;;;8.03;5.93;;;;;;;;;;4971292;28;20120;-59
2023/08/27 07:53:47;;;;;;;8.18;5.95;;;;;;;;;;4959268;28;20305;-59
2023/08/27 07:56:13;;;;;;;7.97;6.20;;;;;;;;;;4974108;28;20069;-58
2023/08/27 07:58:38;;;;;;;8.00;6.10;;;;;;;;;;4982528;28;20046;-59
2023/08/27 08:01:04;;;;;;;12.17;6.60;;;;;;;;;;4974578;28;20037;-58
2023/08/27 08:03:29;;;;;;;7.57;5.57;;;;;;;;;;4979458;28;20086;-58
2023/08/27 08:05:54;;;;;;;8.70;5.20;;;;;;;;;;4979265;28;20440;-58
2023/08/27 08:08:19;;;;;;;8.93;5.70;;;;;;;;;;4991553;28;20038;-59
2023/08/27 08:10:45;;;;;;;7.50;5.40;;;;;;;;;;4978468;28;20320;-59
2023/08/27 08:13:10;;;;;;;7.90;5.50;;;;;;;;;;4993358;28;21118;-59
2023/08/27 08:15:35;;;;;;;8.10;5.65;;;;;;;;;;4991787;28;20363;-59
2023/08/27 08:18:02;;;;;;;8.37;5.83;;;;;;;;;;4986213;28;20050;-57
2023/08/27 08:20:27;;;;;;;8.48;5.80;;;;;;;;;;4981179;28;20049;-59
2023/08/27 08:22:52;;;;;;;8.97;6.30;;;;;;;;;;4977569;28;20051;-59
2023/08/27 08:25:17;;;;;;;11.53;5.80;;;;;;;;;;4990361;28;20034;-57
2023/08/27 08:27:43;;;;;;;7.43;5.40;;;;;;;;;;4992802;28;20105;-59
2023/08/27 08:30:08;;;;;;;8.55;6.20;;;;;;;;;;4991857;28;20339;-59
2023/08/27 08:32:33;;;;;;;9.48;5.47;;;;;;;;;;4991797;28;20482;-60
2023/08/27 08:34:58;;;;;;;8.73;5.82;;;;;;;;;;4989915;28;20038;-61
2023/08/27 08:37:25;;;;;;;8.23;5.90;;;;;;;;;;4992970;28;20121;-59
2023/08/27 08:39:50;;;;;;;8.05;5.60;;;;;;;;;;4975591;28;20296;-60
2023/08/27 08:42:40;;;;;;;7.72;5.30;;;;;;;;;;4990547;28;20893;-61
2023/08/27 08:45:23;;;;;;;8.15;5.88;;;;;;;;;;4958952;28;20542;-62
2023/08/27 08:47:49;;;;;;;7.10;4.75;;;;;;;;;;4988691;28;20508;-61
2023/08/27 08:50:59;;;;;;;8.85;5.60;;;;;;;;;;4999591;28;20219;-58
2023/08/27 08:53:37;;;;;;;6.32;4.93;;;;;;;;;;4997136;28;20352;-59
2023/08/27 08:56:52;;;;;;;8.05;5.45;;;;;;;;;;4989976;28;20038;-57
2023/08/27 08:59:27;;;;;;;6.20;4.97;;;;;;;;;;4983118;28;20065;-59
2023/08/27 09:02:11;;;;;;;5.53;4.78;;;;;;;;;;5001309;28;20038;-57
2023/08/27 09:05:00;;;;;;;6.60;4.72;;;;;;;;;;4984886;28;20046;-56
2023/08/27 09:11:02;;;;;;;6.90;4.93;;;;;;;;;;4981063;28;20495;-57
2023/08/27 09:13:51;;;;;;;8.80;4.95;;;;;;;;;;4979334;28;20456;-59
2023/08/27 09:16:38;;;;;;;7.47;4.65;;;;;;;;;;5000636;28;20088;-58
2023/08/27 09:22:42;;;;;;;6.50;4.90;;;;;;;;;;4988092;28;20140;-58
2023/08/27 09:25:58;;;;;;;6.38;4.80;;;;;;;;;;4989922;28;20046;-58
2023/08/27 09:28:46;;;;;;;6.25;4.70;;;;;;;;;;5002637;28;20049;-57
2023/08/27 09:31:35;;;;;;;6.20;4.88;;;;;;;;;;5003122;28;20042;-57
2023/08/27 09:34:22;;;;;;;7.15;4.97;;;;;;;;;;5010367;28;20030;-57
2023/08/27 09:37:10;;;;;;;5.90;4.78;;;;;;;;;;4996451;28;20034;-58
2023/08/27 09:39:58;;;;;;;7.55;4.85;;;;;;;;;;4986199;28;20039;-58
2023/08/27 09:42:46;;;;;;;6.88;4.60;;;;;;;;;;4993269;28;20046;-58
2023/08/27 09:46:02;;;;;;;7.38;4.55;;;;;;;;;;4988533;28;20072;-58
2023/08/27 09:49:18;;;;;;;7.45;5.10;;;;;;;;;;4969356;28;20041;-58
2023/08/27 09:52:07;;;;;;;7.25;4.53;;;;;;;;;;5002006;28;20484;-59
2023/08/27 09:54:54;;;;;;;8.23;4.50;;;;;;;;;;4999901;28;20606;-57
2023/08/27 09:57:42;;;;;;;6.47;4.80;;;;;;;;;;4993357;28;20088;-58
2023/08/27 10:03:46;;;;;;;9.82;4.57;;;;;;;;;;4998903;28;20508;-57
2023/08/27 10:06:34;;;;;;;6.80;4.57;;;;;;;;;;4997682;28;20113;-57
2023/08/27 10:09:22;;;;;;;7.88;4.95;;;;;;;;;;5013134;28;20042;-57
2023/08/27 10:12:10;;;;;;;7.15;4.93;;;;;;;;;;4995860;28;20130;-59
2023/08/27 10:14:58;;;;;;;7.38;5.18;;;;;;;;;;5021843;28;20038;-57
2023/08/27 10:17:46;;;;;;;5.97;4.75;;;;;;;;;;4991135;28;20034;-57
2023/08/27 10:20:34;;;;;;;6.88;4.72;;;;;;;;;;5004443;28;20064;-57
2023/08/27 10:23:22;;;;;;;5.85;4.60;;;;;;;;;;5000020;28;20116;-58
2023/08/27 10:26:12;;;;;;;6.10;4.50;;;;;;;;;;5000483;28;20436;-58
2023/08/27 10:28:58;;;;;;;8.15;4.88;;;;;;;;;;5024345;28;20018;-56
2023/08/27 10:31:46;;;;;;;7.97;4.70;;;;;;;;;;5008084;28;20124;-58
2023/08/27 10:43:54;;;;;;;6.07;4.15;;;;;;;;;;5001265;28;20465;-56
2023/08/27 10:46:43;;;;;;;5.45;4.30;;;;;;;;;;4973358;28;20176;-58
2023/08/27 10:49:58;;;;;;;6.28;4.32;;;;;;;;;;4992589;28;20533;-58
2023/08/27 10:52:46;;;;;;;5.15;4.43;;;;;;;;;;4991472;28;20041;-57
2023/08/27 10:56:02;;;;;;;5.57;4.28;;;;;;;;;;5000470;28;20037;-59
2023/08/27 10:58:50;;;;;;;6.72;4.38;;;;;;;;;;5003601;28;20034;-57
2023/08/27 11:01:38;;;;;;;5.63;3.95;;;;;;;;;;5001255;28;20030;-57
2023/08/27 11:04:26;;;;;;;5.97;4.07;;;;;;;;;;4999557;28;20076;-56
2023/08/27 11:07:15;;;;;;;5.10;4.20;;;;;;;;;;5006931;28;20042;-57
2023/08/27 11:10:02;;;;;;;5.13;3.92;;;;;;;;;;4994651;28;20555;-57
2023/08/27 11:13:19;;;;;;;5.22;4.18;;;;;;;;;;4997000;28;20548;-57
2023/08/27 11:15:57;;;;;;;5.38;3.85;;;;;;;;;;5001627;28;20056;-57
2023/08/27 11:18:54;;;;;;;5.57;3.72;;;;;;;;;;4992664;28;20500;-56
2023/08/27 11:21:42;;;;;;;5.07;3.78;;;;;;;;;;4992535;28;20077;-57
2023/08/27 11:24:30;;;;;;;5.90;3.80;;;;;;;;;;5020409;28;20038;-58
2023/08/27 11:27:19;;;;;;;4.90;3.85;;;;;;;;;;4994896;28;20094;-58
2023/08/27 11:33:24;;;;;;;4.97;3.65;;;;;;;;;;4974049;28;20106;-58
2023/08/27 11:36:10;;;;;;;6.10;3.70;;;;;;;;;;5000459;28;20070;-58
2023/08/27 11:39:26;;;;;;;4.47;3.50;;;;;;;;;;4988157;28;20121;-57
2023/08/27 11:42:15;;;;;;;4.93;3.90;;;;;;;;;;4992276;28;20038;-57
2023/08/27 11:45:03;;;;;;;4.30;3.40;;;;;;;;;;5003584;28;20038;-58
2023/08/27 11:47:50;;;;;;;6.33;4.17;;;;;;;;;;4992599;28;20038;-58
2023/08/27 11:59:14;;;;;;;5.03;3.50;;;;;;;;;;4996342;28;20073;-57
2023/08/27 12:01:50;;;;;;;4.78;3.40;;;;;;;;;;5006760;28;20403;-58
2023/08/27 12:07:09;;;;;;;4.10;3.20;;;;;;;;;;4993181;28;20134;-57
2023/08/27 12:09:56;;;;;;;3.83;3.05;;;;;;;;;;4991741;28;20049;-58
2023/08/27 12:12:44;;;;;;;4.57;3.25;;;;;;;;;;4998385;28;20129;-58
2023/08/27 12:15:35;;;;;;;4.53;3.53;;;;;;;;;;4982807;28;20539;-58
2023/08/27 12:18:21;;;;;;;4.75;3.47;;;;;;;;;;4994588;28;20082;-58
2023/08/27 12:21:09;;;;;;;4.45;3.17;;;;;;;;;;4972377;28;20069;-56
2023/08/27 12:23:57;;;;;;;4.85;3.40;;;;;;;;;;4999927;28;20423;-57
2023/08/27 12:26:44;;;;;;;5.05;3.20;;;;;;;;;;4998799;28;20042;-57
2023/08/27 12:29:33;;;;;;;3.70;3.08;;;;;;;;;;4993150;28;20053;-58
2023/08/27 12:32:21;;;;;;;4.65;3.30;;;;;;;;;;5015745;28;20062;-56
2023/08/27 12:35:11;;;;;;;4.68;3.47;;;;;;;;;;4995115;28;20068;-57
2023/08/27 12:37:57;;;;;;;4.57;3.42;;;;;;;;;;4990106;28;20050;-57
2023/08/27 12:40:45;;;;;;;4.63;3.22;;;;;;;;;;4982218;28;20108;-57
2023/08/27 12:43:33;;;;;;;4.90;3.50;;;;;;;;;;4987029;28;20035;-57
2023/08/27 12:46:22;;;;;;;4.00;3.13;;;;;;;;;;5007794;28;20407;-58
2023/08/27 12:49:09;;;;;;;4.05;3.03;;;;;;;;;;4999929;28;20036;-57
2023/08/27 12:51:57;;;;;;;3.97;3.58;;;;;;;;;;4989121;28;20455;-57
2023/08/27 12:54:45;;;;;;;5.00;3.15;;;;;;;;;;4990568;28;20508;-57
2023/08/27 12:57:33;;;;;;;4.88;3.22;;;;;;;;;;4992962;28;20042;-60
2023/08/27 13:01:00;;;;;;;9.05;3.30;;;;;;;;;;4992443;28;20544;-61
2023/08/27 13:12:14;;;;;;;4.97;3.33;;;;;;;;;;4974927;28;20065;-61
2023/08/27 13:14:59;;;;;;;4.18;2.85;;;;;;;;;;5005378;28;20120;-62
2023/08/27 13:17:47;;;;;;;3.55;2.85;;;;;;;;;;4989420;28;20133;-61
2023/08/27 13:20:35;;;;;;;3.42;2.53;;;;;;;;;;4997699;28;20298;-61
2023/08/27 13:23:24;;;;;;;4.07;2.75;;;;;;;;;;4993406;28;20133;-61
2023/08/27 13:26:12;;;;;;;3.13;2.47;;;;;;;;;;4988930;28;20049;-61
2023/08/27 13:31:47;;;;;;;3.35;2.70;;;;;;;;;;4995462;28;20096;-61
2023/08/27 13:34:35;;;;;;;4.60;3.20;;;;;;;;;;4996380;28;20568;-62
2023/08/27 13:37:24;;;;;;;3.40;2.80;;;;;;;;;;4998385;28;20030;-62
2023/08/27 13:40:11;;;;;;;3.80;2.65;;;;;;;;;;5001234;28;20022;-62
2023/08/27 13:42:59;;;;;;;3.75;2.88;;;;;;;;;;4995216;28;20409;-62
2023/08/27 13:45:47;;;;;;;4.22;2.85;;;;;;;;;;4972162;28;20431;-64
2023/08/27 13:48:36;;;;;;;3.10;2.50;;;;;;;;;;4998694;28;20025;-63
2023/08/27 13:51:22;;;;;;;3.25;2.60;;;;;;;;;;4997594;28;20034;-62
2023/08/27 13:56:59;;;;;;;4.32;2.83;;;;;;;;;;5004797;28;20061;-63
2023/08/27 13:59:47;;;;;;;4.10;2.35;;;;;;;;;;4994746;28;20038;-61
2023/08/27 14:02:35;;;;;;;2.90;2.47;;;;;;;;;;4995720;28;20052;-62
2023/08/27 14:05:05;;;;;;;3.25;2.63;;;;;;;;;;4989826;28;20033;-62
2023/08/27 14:07:36;;;;;;;3.30;2.60;;;;;;;;;;4992881;28;20460;-60
2023/08/27 14:10:23;;;;;;;2.88;2.40;;;;;;;;;;4996665;28;20045;-61
2023/08/27 14:13:11;;;;;;;3.45;2.60;;;;;;;;;;4988138;28;20077;-61
2023/08/27 14:15:59;;;;;;;2.80;2.28;;;;;;;;;;4987943;28;20034;-62
2023/08/27 14:18:49;;;;;;;3.08;2.40;;;;;;;;;;5002414;28;20053;-61
2023/08/27 14:21:36;;;;;;;3.55;2.63;;;;;;;;;;5003657;28;20038;-62
2023/08/27 14:24:24;;;;;;;3.63;2.53;;;;;;;;;;4999074;28;20133;-61
2023/08/27 14:27:12;;;;;;;3.22;2.28;;;;;;;;;;4977016;28;20014;-62
2023/08/27 14:29:59;;;;;;;2.78;2.35;;;;;;;;;;5005741;28;20026;-61
2023/08/27 14:32:47;;;;;;;2.50;2.00;;;;;;;;;;4991440;28;20046;-62
2023/08/27 14:35:35;;;;;;;3.30;2.58;;;;;;;;;;5002623;28;20069;-61
2023/08/27 14:40:53;;;;;;;2.83;2.40;;;;;;;;;;4993417;28;20050;-63
2023/08/27 14:43:41;;;;;;;3.38;2.50;;;;;;;;;;4965295;28;20046;-63
2023/08/27 14:46:29;;;;;;;2.80;2.17;;;;;;;;;;4995565;28;20144;-62
2023/08/27 14:49:07;;;;;;;3.03;2.30;;;;;;;;;;5001926;28;20030;-61
2023/08/27 14:51:47;;;;;;;3.85;2.65;;;;;;;;;;4980819;28;20056;-61
2023/08/27 14:54:36;;;;;;;3.58;2.42;;;;;;;;;;4998166;28;20040;-60
2023/08/27 14:57:33;;;;;;;3.35;2.00;;;;;;;;;;5017001;28;20541;-61
2023/08/27 15:03:09;;;;;;;2.80;2.15;;;;;;;;;;4981390;28;20134;-61
2023/08/27 15:06:00;;;;;;;3.30;2.20;;;;;;;;;;5000605;28;20044;-62
2023/08/27 15:08:47;;;;;;;3.13;2.35;;;;;;;;;;4972834;28;20027;-62
2023/08/27 15:11:33;;;;;;;3.65;2.10;;;;;;;;;;4970097;28;20043;-60
2023/08/27 15:14:12;;;;;;;2.67;2.00;;;;;;;;;;4974556;28;20022;-61
2023/08/27 15:17:09;;;;;;;2.50;2.10;;;;;;;;;;4995257;28;20038;-62
2023/08/27 15:20:09;;;;;;;2.85;2.30;;;;;;;;;;5001614;28;20064;-63
2023/08/27 15:23:23;;;;;;;3.92;2.10;;;;;;;;;;4989365;28;20072;-62
2023/08/27 15:26:12;;;;;;;2.95;2.15;;;;;;;;;;4997819;28;20046;-61
2023/08/27 15:32:43;;;;;;;3.08;1.95;;;;;;;;;;4996135;28;20038;-61
2023/08/27 15:35:31;;;;;;;3.45;2.10;;;;;;;;;;4998701;28;20065;-60
2023/08/27 15:38:19;;;;;;;2.63;2.00;;;;;;;;;;4987167;28;20046;-59
2023/08/27 15:41:07;;;;;;;3.30;2.03;;;;;;;;;;4990291;28;20030;-60
2023/08/27 15:43:55;;;;;;;3.88;2.13;;;;;;;;;;4990575;28;20057;-61
2023/08/27 15:46:44;;;;;;;2.65;1.90;;;;;;;;;;4955292;28;20035;-60
2023/08/27 15:49:32;;;;;;;2.88;2.10;;;;;;;;;;4968702;28;20086;-60
2023/08/27 15:52:19;;;;;;;2.10;1.73;;;;;;;;;;4996934;28;20074;-60
2023/08/27 15:55:08;;;;;;;2.92;1.95;;;;;;;;;;4999259;28;20109;-62
2023/08/27 15:57:55;;;;;;;2.60;2.03;;;;;;;;;;4997512;28;20069;-60
2023/08/27 16:00:43;;;;;;;3.10;1.98;;;;;;;;;;4993374;28;20145;-61
2023/08/27 16:03:32;;;;;;;3.10;2.10;;;;;;;;;;4989705;28;20042;-62
2023/08/27 16:06:19;;;;;;;2.60;1.88;;;;;;;;;;4989942;28;20415;-61
2023/08/27 16:09:09;;;;;;;2.67;1.85;;;;;;;;;;4967350;28;20532;-60
2023/08/27 16:11:38;;;;;;;3.05;2.35;;;;;;;;;;4977214;28;20038;-63
2023/08/27 16:14:25;;;;;;;3.08;2.10;;;;;;;;;;4999465;28;20026;-63
2023/08/27 16:17:40;;;;;;;4.20;2.13;;;;;;;;;;4990447;28;20030;-61
2023/08/27 16:20:30;;;;;;;3.10;1.90;;;;;;;;;;4999574;28;20414;-60